Search for airport 
image banner adimage banner ad
image banner ad

SVVX - Melia Caribe

Located in Caraballeda, Venezuela

ICAO - SVVX, IATA -

Data provided by Airmate  

General information

Coordinates: N10°37'10" W66°58'10"
Elevation is 621 feet MSL.
 
Rated:
View ratings: [VIEW]


View others Airports in Bolívar

Operational data

Open for public use
Current time UTC:
Current local time:
METAR: SVMI 062200Z 07008KT 9999 SCT016 30/23 Q1014
TAF: TAF SVMI 061600Z 0612/0712 05009KT 9999 SCT016 TX34/0618Z TN24/0508Z BECMG 0612/0616 11005KT 9000 -DZ BKN016
View NOTAMs / SUP AIP / TFR affecting this airport [VIEW]
Communications frequencies: [VIEW]

Runways:

Airport contact information

Address: Caraballeda Venezuela

Satellite view of SVVX